Time;durP1;ratioP1;P1;durP2;ratioP2;P2;SDS_P1;SDS_P2;PMS_P1;PMS_P2;Temp;Humidity;BMP_temperature;BMP_pressure;BME280_temperature;BME280_humidity;BME280_pressure;Samples;Min_cycle;Max_cycle;Signal;HPM_P1;HPM_P2
2021/09/16 00:01:37;;;;;;;3.08;1.00;;;16.20;79.30;;;;;;5073214;28;20120;-75
2021/09/16 00:04:04;;;;;;;3.90;1.00;;;16.10;79.40;;;;;;5073248;28;20111;-75
2021/09/16 00:06:29;;;;;;;2.88;1.15;;;16.10;79.60;;;;;;5073231;28;20085;-75
2021/09/16 00:08:55;;;;;;;2.13;0.82;;;16.10;79.60;;;;;;5074516;28;20427;-75
2021/09/16 00:11:20;;;;;;;2.67;0.93;;;16.00;79.60;;;;;;5073045;28;20056;-75
2021/09/16 00:13:46;;;;;;;2.80;1.13;;;16.00;79.80;;;;;;5074380;28;20016;-76
2021/09/16 00:16:12;;;;;;;3.13;1.00;;;16.00;79.90;;;;;;5073081;28;20120;-76
2021/09/16 00:18:38;;;;;;;2.75;0.90;;;16.00;80.60;;;;;;5073008;28;20032;-75
2021/09/16 00:21:03;;;;;;;2.22;0.95;;;15.90;80.00;;;;;;5072789;28;20021;-76
2021/09/16 00:23:29;;;;;;;2.20;0.95;;;15.90;80.10;;;;;;5073644;28;20044;-75
2021/09/16 00:25:55;;;;;;;2.80;0.90;;;15.90;80.10;;;;;;5073710;28;20456;-76
2021/09/16 00:28:20;;;;;;;4.18;1.02;;;15.90;80.20;;;;;;5074250;28;20021;-76
2021/09/16 00:30:46;;;;;;;5.75;0.90;;;15.90;80.20;;;;;;5072684;28;20016;-76
2021/09/16 00:33:12;;;;;;;6.88;1.08;;;15.90;80.30;;;;;;5073895;28;20052;-77
2021/09/16 00:35:38;;;;;;;3.80;1.00;;;15.80;80.30;;;;;;5072591;28;20036;-76
2021/09/16 00:38:03;;;;;;;3.67;1.10;;;15.80;80.40;;;;;;5073941;28;20032;-76
2021/09/16 00:40:29;;;;;;;4.00;1.27;;;15.80;80.40;;;;;;5072543;28;20027;-76
2021/09/16 00:42:54;;;;;;;2.95;0.90;;;15.80;80.50;;;;;;5072381;28;20059;-76
2021/09/16 00:45:20;;;;;;;3.33;0.93;;;15.80;80.50;;;;;;5072361;28;20027;-76
2021/09/16 00:47:48;;;;;;;4.78;1.08;;;15.80;80.60;;;;;;5073632;28;20063;-75
2021/09/16 00:50:16;;;;;;;1.45;1.00;;;15.70;80.60;;;;;;5072319;28;20459;-76
2021/09/16 00:52:41;;;;;;;2.75;0.90;;;15.70;80.70;;;;;;5072276;28;20021;-75
2021/09/16 00:55:10;;;;;;;2.35;1.00;;;15.70;80.70;;;;;;5072061;28;20039;-75
2021/09/16 00:57:37;;;;;;;4.60;1.10;;;15.70;80.80;;;;;;5073418;28;20028;-75
2021/09/16 01:00:07;;;;;;;1.90;0.70;;;15.80;80.80;;;;;;5073435;28;20103;-76
2021/09/16 01:02:32;;;;;;;4.28;0.98;;;15.80;80.70;;;;;;5072049;28;20024;-76
2021/09/16 01:04:58;;;;;;;3.58;1.02;;;15.80;80.70;;;;;;5073367;28;20020;-76
2021/09/16 01:07:24;;;;;;;3.53;0.88;;;15.80;80.60;;;;;;5072040;28;20021;-76
2021/09/16 01:09:50;;;;;;;2.05;0.90;;;15.80;80.70;;;;;;5073288;28;20384;-76
2021/09/16 01:12:16;;;;;;;3.88;1.10;;;15.90;80.80;;;;;;5071986;28;20031;-76
2021/09/16 01:14:41;;;;;;;2.67;0.90;;;15.90;80.80;;;;;;5072145;28;20047;-75
2021/09/16 01:17:07;;;;;;;1.35;0.68;;;15.90;80.80;;;;;;5071786;28;20077;-76
2021/09/16 01:19:33;;;;;;;3.50;0.88;;;15.90;80.80;;;;;;5073181;28;20039;-76
2021/09/16 01:21:58;;;;;;;1.98;1.00;;;15.80;80.70;;;;;;5071715;28;20137;-76
2021/09/16 01:24:27;;;;;;;4.28;0.88;;;15.80;80.80;;;;;;5071906;28;20166;-75
2021/09/16 01:26:53;;;;;;;2.45;0.73;;;15.80;80.90;;;;;;5071788;28;20090;-76
2021/09/16 01:29:18;;;;;;;2.67;0.70;;;15.70;80.90;;;;;;5073081;28;20025;-76
2021/09/16 01:31:46;;;;;;;1.52;0.85;;;15.70;81.00;;;;;;5072901;28;20112;-75
2021/09/16 01:34:15;;;;;;;1.27;0.60;;;15.70;81.10;;;;;;5071553;28;20028;-76
2021/09/16 01:36:43;;;;;;;2.08;0.75;;;15.70;81.20;;;;;;5070905;28;20117;-75
2021/09/16 01:39:11;;;;;;;2.80;1.05;;;15.70;81.20;;;;;;5071628;28;20025;-76
2021/09/16 01:41:37;;;;;;;2.50;0.65;;;15.60;81.20;;;;;;5072597;28;20082;-76
2021/09/16 01:44:03;;;;;;;2.38;0.75;;;15.60;81.20;;;;;;5072832;28;20526;-76
2021/09/16 01:46:29;;;;;;;2.17;0.60;;;15.60;81.30;;;;;;5071511;28;20059;-76
2021/09/16 01:48:58;;;;;;;2.30;0.80;;;15.60;81.30;;;;;;5072735;28;20480;-76
2021/09/16 01:51:23;;;;;;;4.78;0.90;;;15.60;81.40;;;;;;5072743;28;20020;-76
2021/09/16 01:53:49;;;;;;;2.70;0.88;;;15.60;81.50;;;;;;5071378;28;20024;-76
2021/09/16 01:56:14;;;;;;;1.55;0.57;;;15.60;81.50;;;;;;5071367;28;20012;-75
2021/09/16 01:58:40;;;;;;;2.10;0.75;;;15.50;81.50;;;;;;5071386;28;20025;-75
2021/09/16 02:01:06;;;;;;;3.55;0.90;;;15.50;81.60;;;;;;5072655;28;20024;-76
2021/09/16 02:03:31;;;;;;;1.63;0.75;;;15.50;81.70;;;;;;5072567;28;20432;-75
2021/09/16 02:05:57;;;;;;;0.68;0.60;;;15.50;81.80;;;;;;5072706;28;20104;-75
2021/09/16 02:08:23;;;;;;;3.10;0.90;;;15.50;81.80;;;;;;5071368;28;20614;-75
2021/09/16 02:10:49;;;;;;;1.25;0.73;;;15.50;81.90;;;;;;5071302;28;20100;-75
2021/09/16 02:13:14;;;;;;;1.60;0.70;;;15.50;81.90;;;;;;5071370;28;20392;-75
2021/09/16 02:15:40;;;;;;;1.45;0.90;;;15.50;82.00;;;;;;5071277;28;20025;-75
2021/09/16 02:18:06;;;;;;;1.98;0.95;;;15.40;82.00;;;;;;5072494;28;20033;-75
2021/09/16 02:20:31;;;;;;;3.28;0.98;;;15.50;82.10;;;;;;5072641;28;20542;-76
2021/09/16 02:22:57;;;;;;;4.00;1.20;;;15.50;82.10;;;;;;5072236;28;20147;-75
2021/09/16 02:25:23;;;;;;;1.92;0.80;;;15.50;82.20;;;;;;5071058;28;20551;-75
2021/09/16 02:27:48;;;;;;;3.10;0.95;;;15.50;82.10;;;;;;5072505;28;20020;-75
2021/09/16 02:30:14;;;;;;;3.05;1.00;;;15.50;82.10;;;;;;5072220;28;20043;-75
2021/09/16 02:32:40;;;;;;;1.70;1.10;;;15.50;82.00;;;;;;5072504;28;20429;-75
2021/09/16 02:35:06;;;;;;;3.70;1.30;;;15.50;82.00;;;;;;5071014;28;20185;-76
2021/09/16 02:37:32;;;;;;;1.95;1.00;;;15.50;82.00;;;;;;5070975;28;20025;-75
2021/09/16 02:39:57;;;;;;;2.55;1.10;;;15.50;82.00;;;;;;5072388;28;20466;-76
2021/09/16 02:42:23;;;;;;;1.27;0.85;;;15.50;82.00;;;;;;5070968;28;20036;-76
2021/09/16 02:44:49;;;;;;;1.55;0.80;;;15.60;82.00;;;;;;5070851;28;20052;-76
2021/09/16 02:47:14;;;;;;;3.10;1.20;;;15.60;82.00;;;;;;5071799;28;20028;-76
2021/09/16 02:49:40;;;;;;;3.08;0.90;;;15.70;82.10;;;;;;5074600;28;20029;-77
2021/09/16 02:52:06;;;;;;;2.92;1.23;;;15.70;82.00;;;;;;5074628;28;20036;-76
2021/09/16 02:54:31;;;;;;;2.03;0.80;;;15.80;82.00;;;;;;5074752;28;20025;-76
2021/09/16 02:56:57;;;;;;;2.50;1.00;;;15.70;81.90;;;;;;5074462;28;20032;-77
2021/09/16 02:59:22;;;;;;;2.55;0.73;;;15.80;81.80;;;;;;5075670;28;20488;-77
2021/09/16 03:01:48;;;;;;;2.20;0.90;;;15.90;81.80;;;;;;5074822;28;20115;-76
2021/09/16 03:04:14;;;;;;;1.20;0.70;;;15.90;81.70;;;;;;5075674;28;20047;-76
2021/09/16 03:06:39;;;;;;;2.58;0.90;;;15.90;81.70;;;;;;5075603;28;20028;-77
2021/09/16 03:09:05;;;;;;;1.95;1.02;;;15.90;81.60;;;;;;5074303;28;20431;-77
2021/09/16 03:11:31;;;;;;;2.22;0.90;;;15.90;81.50;;;;;;5075572;28;20426;-76
2021/09/16 03:13:56;;;;;;;2.35;0.82;;;15.90;81.50;;;;;;5075651;28;20047;-76
2021/09/16 03:16:22;;;;;;;1.50;0.80;;;15.90;81.50;;;;;;5074334;28;20020;-76
2021/09/16 03:18:47;;;;;;;1.80;0.70;;;15.90;81.60;;;;;;5075428;28;20017;-76
2021/09/16 03:21:13;;;;;;;1.25;0.82;;;15.90;81.60;;;;;;5075384;28;20024;-77
2021/09/16 03:23:39;;;;;;;2.80;0.93;;;15.90;81.50;;;;;;5073812;28;20425;-76
2021/09/16 03:26:04;;;;;;;1.77;0.90;;;16.00;81.60;;;;;;5075299;28;20032;-76
2021/09/16 03:28:30;;;;;;;3.33;1.00;;;16.00;81.70;;;;;;5073906;28;20107;-76
2021/09/16 03:30:56;;;;;;;3.33;0.95;;;16.00;81.80;;;;;;5073798;28;20016;-76
2021/09/16 03:33:21;;;;;;;4.82;1.00;;;16.00;81.90;;;;;;5073843;28;20017;-76
2021/09/16 03:35:47;;;;;;;1.70;1.00;;;16.00;82.00;;;;;;5075043;28;20024;-76
2021/09/16 03:38:13;;;;;;;2.88;1.00;;;16.00;82.10;;;;;;5073840;28;20028;-76
2021/09/16 03:40:38;;;;;;;1.00;0.90;;;16.00;82.20;;;;;;5073805;28;20024;-76
2021/09/16 03:43:05;;;;;;;4.55;1.20;;;16.00;82.20;;;;;;5073561;28;20052;-77
2021/09/16 03:45:31;;;;;;;2.67;1.20;;;16.00;82.30;;;;;;5073670;28;20103;-76
2021/09/16 03:47:56;;;;;;;5.03;1.38;;;16.00;82.40;;;;;;5073500;28;20560;-77
2021/09/16 03:50:22;;;;;;;3.70;1.38;;;16.00;82.50;;;;;;5073602;28;20029;-76
2021/09/16 03:52:47;;;;;;;4.05;1.30;;;16.00;82.60;;;;;;5073573;28;20469;-77
2021/09/16 03:55:13;;;;;;;2.85;1.27;;;16.00;82.70;;;;;;5074673;28;20029;-76
2021/09/16 03:57:39;;;;;;;4.20;1.88;;;16.00;82.80;;;;;;5074715;28;20027;-76
2021/09/16 04:00:06;;;;;;;2.45;1.45;;;16.00;83.00;;;;;;5072452;28;20032;-76
2021/09/16 04:02:32;;;;;;;2.97;1.58;;;16.00;83.20;;;;;;5074501;28;20055;-76
2021/09/16 04:04:58;;;;;;;3.03;1.70;;;15.90;83.30;;;;;;5074511;28;20040;-76
2021/09/16 04:07:23;;;;;;;1.95;1.67;;;16.00;83.40;;;;;;5073617;28;20024;-76
2021/09/16 04:09:49;;;;;;;2.55;1.58;;;15.90;83.60;;;;;;5073103;28;20028;-77
2021/09/16 04:12:15;;;;;;;5.53;1.58;;;15.90;83.70;;;;;;5074435;28;20032;-76
2021/09/16 04:14:40;;;;;;;4.90;1.80;;;15.90;83.80;;;;;;5074279;28;20070;-76
2021/09/16 04:17:06;;;;;;;3.25;1.45;;;15.90;83.90;;;;;;5074255;28;20101;-76
2021/09/16 04:19:31;;;;;;;3.15;1.10;;;15.80;84.00;;;;;;5072941;28;20024;-75
2021/09/16 04:21:57;;;;;;;3.72;1.08;;;15.80;84.00;;;;;;5074376;28;20399;-76
2021/09/16 04:24:23;;;;;;;3.35;1.30;;;15.90;84.00;;;;;;5072871;28;20523;-76
2021/09/16 04:26:48;;;;;;;2.28;1.13;;;15.90;84.10;;;;;;5072809;28;20116;-76
2021/09/16 04:29:14;;;;;;;2.35;1.00;;;15.90;84.10;;;;;;5074066;28;20017;-75
2021/09/16 04:31:40;;;;;;;1.50;1.05;;;15.80;84.10;;;;;;5072908;28;20024;-77
2021/09/16 04:34:06;;;;;;;3.40;1.08;;;15.90;84.10;;;;;;5072501;28;20033;-76
2021/09/16 04:36:32;;;;;;;2.97;1.00;;;15.90;84.10;;;;;;5073889;28;20058;-76
2021/09/16 04:38:57;;;;;;;5.00;1.20;;;15.90;84.20;;;;;;5072523;28;20025;-75
2021/09/16 04:41:23;;;;;;;3.38;1.05;;;15.90;84.20;;;;;;5072628;28;20109;-75
2021/09/16 04:43:48;;;;;;;4.68;1.10;;;15.90;84.20;;;;;;5073643;28;20376;-76
2021/09/16 04:49:36;;;;;;;4.18;1.10;;;15.90;84.30;;;;;;5073944;28;20086;-75
2021/09/16 04:52:02;;;;;;;2.78;0.80;;;15.90;84.30;;;;;;5073641;28;20438;-76
2021/09/16 04:54:27;;;;;;;1.95;0.77;;;15.90;84.30;;;;;;5072756;28;20455;-76
2021/09/16 04:56:53;;;;;;;3.05;0.90;;;15.90;84.20;;;;;;5072568;28;20044;-77
2021/09/16 04:59:18;;;;;;;2.03;0.90;;;15.90;84.20;;;;;;5073574;28;20048;-76
2021/09/16 05:01:44;;;;;;;2.03;0.77;;;15.90;84.20;;;;;;5072024;28;20032;-76
2021/09/16 05:04:10;;;;;;;3.03;0.75;;;16.00;84.30;;;;;;5072289;28;20609;-75
2021/09/16 05:06:35;;;;;;;2.03;0.90;;;16.00;84.20;;;;;;5069156;28;20058;-76
2021/09/16 05:09:02;;;;;;;2.90;0.98;;;16.00;84.30;;;;;;5072136;28;20020;-77
2021/09/16 05:11:29;;;;;;;2.22;0.68;;;16.00;84.30;;;;;;5073210;28;20017;-76
2021/09/16 05:13:55;;;;;;;2.10;1.00;;;16.00;84.30;;;;;;5071891;28;20082;-76
2021/09/16 05:16:21;;;;;;;1.73;1.00;;;15.90;84.30;;;;;;5073296;28;20029;-76
2021/09/16 05:18:47;;;;;;;1.50;0.70;;;16.00;84.30;;;;;;5073089;28;20021;-77
2021/09/16 05:21:13;;;;;;;1.95;0.80;;;16.00;84.30;;;;;;5072099;28;20474;-77
2021/09/16 05:23:39;;;;;;;1.85;0.88;;;15.90;84.20;;;;;;5071611;28;20128;-76
2021/09/16 05:26:05;;;;;;;2.03;0.85;;;16.00;84.30;;;;;;5071881;28;20039;-74
2021/09/16 05:28:31;;;;;;;4.18;0.90;;;16.00;84.30;;;;;;5073224;28;20055;-76
2021/09/16 05:30:56;;;;;;;2.05;0.80;;;16.00;84.30;;;;;;5071724;28;20074;-75
2021/09/16 05:33:22;;;;;;;2.25;0.80;;;15.90;84.30;;;;;;5072891;28;20036;-75
2021/09/16 05:35:47;;;;;;;2.40;1.00;;;15.90;84.30;;;;;;5072952;28;20159;-76
2021/09/16 05:38:13;;;;;;;1.05;0.70;;;15.90;84.30;;;;;;5072935;28;20024;-76
2021/09/16 05:40:39;;;;;;;3.55;0.82;;;15.90;84.30;;;;;;5072755;28;20020;-75
2021/09/16 05:43:05;;;;;;;1.75;0.70;;;15.90;84.30;;;;;;5072514;28;20082;-75
2021/09/16 05:45:30;;;;;;;2.08;0.80;;;15.90;84.30;;;;;;5071434;28;20494;-75
2021/09/16 05:47:59;;;;;;;3.17;0.80;;;15.90;84.30;;;;;;5071479;28;20422;-75
2021/09/16 05:50:24;;;;;;;2.70;0.90;;;15.90;84.40;;;;;;5071325;28;20348;-76
2021/09/16 05:52:50;;;;;;;4.72;0.90;;;15.90;84.40;;;;;;5071328;28;20404;-76
2021/09/16 05:55:16;;;;;;;1.95;0.70;;;15.90;84.30;;;;;;5071339;28;20031;-76
2021/09/16 05:57:42;;;;;;;4.20;1.08;;;16.00;84.40;;;;;;5072563;28;20024;-76
2021/09/16 06:00:08;;;;;;;2.85;0.80;;;16.00;84.40;;;;;;5071361;28;20028;-76
2021/09/16 06:02:34;;;;;;;1.90;0.85;;;16.00;84.40;;;;;;5071222;28;20025;-75
2021/09/16 06:05:00;;;;;;;2.22;0.90;;;15.90;84.40;;;;;;5071211;28;20069;-75
2021/09/16 06:07:26;;;;;;;1.50;0.70;;;15.90;84.40;;;;;;5072518;28;20024;-75
2021/09/16 06:09:52;;;;;;;2.72;0.98;;;15.90;84.50;;;;;;5072495;28;20090;-76
2021/09/16 06:12:18;;;;;;;2.72;0.80;;;15.90;84.50;;;;;;5072519;28;20052;-75
2021/09/16 06:14:44;;;;;;;2.67;1.00;;;15.90;84.60;;;;;;5071123;28;20453;-75
2021/09/16 06:17:10;;;;;;;2.35;0.90;;;15.90;84.60;;;;;;5071245;28;20392;-74
2021/09/16 06:19:36;;;;;;;1.38;0.75;;;15.80;85.20;;;;;;5071191;28;20035;-76
2021/09/16 06:22:03;;;;;;;2.53;0.88;;;15.80;84.70;;;;;;5071552;28;20444;-76
2021/09/16 06:24:29;;;;;;;2.03;0.82;;;15.80;84.70;;;;;;5076565;28;20044;-75
2021/09/16 06:26:57;;;;;;;2.72;0.75;;;15.80;84.70;;;;;;5075073;28;20071;-76
2021/09/16 06:29:22;;;;;;;4.07;1.10;;;15.70;84.70;;;;;;5076520;28;20025;-76
2021/09/16 06:31:48;;;;;;;2.67;0.90;;;15.70;84.70;;;;;;5076402;28;20032;-76
2021/09/16 06:34:14;;;;;;;0.95;0.70;;;15.70;84.80;;;;;;5075029;28;20099;-76
2021/09/16 06:36:40;;;;;;;2.28;0.85;;;15.70;84.90;;;;;;5076310;28;20419;-76
2021/09/16 06:39:06;;;;;;;2.08;1.00;;;15.60;84.90;;;;;;5076203;28;20082;-76
2021/09/16 06:41:31;;;;;;;2.65;1.00;;;15.60;85.00;;;;;;5074802;28;20035;-76
2021/09/16 06:43:57;;;;;;;2.58;0.98;;;15.60;85.00;;;;;;5075005;28;20019;-76
2021/09/16 06:46:23;;;;;;;3.20;1.10;;;15.60;85.10;;;;;;5074690;28;20021;-75
2021/09/16 06:48:48;;;;;;;2.60;1.05;;;15.60;85.10;;;;;;5075897;28;20092;-76
2021/09/16 06:51:14;;;;;;;2.20;1.17;;;15.60;85.20;;;;;;5074915;28;20025;-76
2021/09/16 06:53:40;;;;;;;2.33;1.23;;;15.60;85.20;;;;;;5075855;28;20491;-76
2021/09/16 06:56:06;;;;;;;2.80;0.90;;;15.60;85.20;;;;;;5074533;28;20527;-76
2021/09/16 06:58:31;;;;;;;2.50;0.98;;;15.60;85.30;;;;;;5074633;28;20024;-76
2021/09/16 07:00:57;;;;;;;1.27;1.17;;;15.60;85.20;;;;;;5075867;28;20025;-76
2021/09/16 07:03:23;;;;;;;2.83;1.20;;;15.60;85.10;;;;;;5074466;28;20032;-76
2021/09/16 07:05:49;;;;;;;3.25;1.35;;;15.70;85.10;;;;;;5074406;28;20056;-76
2021/09/16 07:08:15;;;;;;;2.25;1.02;;;15.80;85.10;;;;;;5074252;28;20384;-77
2021/09/16 07:10:42;;;;;;;8.25;1.15;;;15.80;84.90;;;;;;5074266;28;20108;-77
2021/09/16 07:13:08;;;;;;;2.50;1.20;;;15.90;84.90;;;;;;5075267;28;20056;-77
2021/09/16 07:15:34;;;;;;;3.90;1.33;;;15.90;84.70;;;;;;5074103;28;20059;-77
2021/09/16 07:18:00;;;;;;;2.22;1.17;;;16.00;84.70;;;;;;5075766;28;20032;-76
2021/09/16 07:20:26;;;;;;;3.78;1.38;;;16.10;84.60;;;;;;5074055;28;20032;-76
2021/09/16 07:22:51;;;;;;;2.53;1.25;;;16.20;84.60;;;;;;5075145;28;20062;-75
2021/09/16 07:25:17;;;;;;;2.58;1.17;;;16.20;84.40;;;;;;5075373;28;20027;-76
2021/09/16 07:27:43;;;;;;;3.28;1.10;;;16.30;84.30;;;;;;5073990;28;20028;-76
2021/09/16 07:30:09;;;;;;;2.05;1.30;;;16.40;84.20;;;;;;5074148;28;20048;-76
2021/09/16 07:32:35;;;;;;;3.58;1.27;;;16.50;84.10;;;;;;5073793;28;20028;-76
2021/09/16 07:35:01;;;;;;;1.80;1.00;;;16.50;83.90;;;;;;5073800;28;20338;-76
2021/09/16 07:37:27;;;;;;;1.40;1.00;;;16.60;83.90;;;;;;5073993;28;20032;-76
2021/09/16 07:39:53;;;;;;;2.55;1.00;;;16.70;83.70;;;;;;5073890;28;20815;-76
2021/09/16 07:42:18;;;;;;;1.58;0.90;;;16.80;83.60;;;;;;5075019;28;20029;-75
2021/09/16 07:44:44;;;;;;;2.63;1.00;;;16.90;83.50;;;;;;5073684;28;20024;-76
2021/09/16 07:47:10;;;;;;;2.88;1.02;;;17.00;83.20;;;;;;5073773;28;20590;-76
2021/09/16 07:49:35;;;;;;;2.67;0.93;;;17.10;83.10;;;;;;5073637;28;20044;-75
2021/09/16 07:52:01;;;;;;;2.15;0.98;;;17.20;82.90;;;;;;5073574;28;20384;-76
2021/09/16 07:54:27;;;;;;;3.42;1.20;;;17.20;82.70;;;;;;5073566;28;20410;-76
2021/09/16 07:56:53;;;;;;;3.20;1.00;;;17.30;82.50;;;;;;5074866;28;20579;-76
2021/09/16 07:59:18;;;;;;;2.55;0.88;;;17.40;82.40;;;;;;5073486;28;20388;-76
2021/09/16 08:01:44;;;;;;;1.50;0.90;;;17.40;82.30;;;;;;5074660;28;20103;-76
2021/09/16 08:04:10;;;;;;;2.30;1.10;;;17.50;82.00;;;;;;5073384;28;20052;-77
2021/09/16 08:06:36;;;;;;;1.88;0.88;;;17.50;82.00;;;;;;5073251;28;20017;-77
2021/09/16 08:09:02;;;;;;;2.72;0.82;;;17.60;81.90;;;;;;5074470;28;20027;-76
2021/09/16 08:11:28;;;;;;;2.00;1.08;;;17.60;81.70;;;;;;5074537;28;20017;-76
2021/09/16 08:13:53;;;;;;;1.65;0.80;;;17.70;81.40;;;;;;5073339;28;20044;-75
2021/09/16 08:16:22;;;;;;;5.07;1.40;;;17.70;81.40;;;;;;5073128;28;20017;-77
2021/09/16 08:18:48;;;;;;;8.00;1.20;;;17.70;81.40;;;;;;5073018;28;20021;-77
2021/09/16 08:21:16;;;;;;;1.63;0.70;;;17.60;81.40;;;;;;5074377;28;20441;-77
2021/09/16 08:23:42;;;;;;;1.90;0.80;;;17.60;81.40;;;;;;5072837;28;20083;-77
2021/09/16 08:26:08;;;;;;;2.45;0.93;;;17.50;81.40;;;;;;5074329;28;20108;-77
2021/09/16 08:28:34;;;;;;;1.70;0.70;;;17.60;81.30;;;;;;5074149;28;20025;-76
2021/09/16 08:31:02;;;;;;;1.40;0.80;;;17.60;81.20;;;;;;5072745;28;20438;-76
2021/09/16 08:33:28;;;;;;;2.35;0.90;;;17.60;81.20;;;;;;5072767;28;20479;-76
2021/09/16 08:35:53;;;;;;;1.60;1.00;;;17.60;81.00;;;;;;5074238;28;20024;-76
2021/09/16 08:38:19;;;;;;;4.10;1.17;;;17.60;80.90;;;;;;5073815;28;20025;-75
2021/09/16 08:40:45;;;;;;;3.22;0.93;;;17.70;80.50;;;;;;5074154;28;20020;-76
2021/09/16 08:43:13;;;;;;;0.85;0.57;;;17.70;80.10;;;;;;5072366;28;20576;-76
2021/09/16 08:45:39;;;;;;;2.13;0.88;;;17.80;80.00;;;;;;5071921;28;20380;-76
2021/09/16 08:48:07;;;;;;;2.35;0.80;;;17.80;79.90;;;;;;5072423;28;20082;-76
2021/09/16 08:50:33;;;;;;;2.60;0.90;;;17.80;79.60;;;;;;5072411;28;20040;-77
2021/09/16 08:52:59;;;;;;;1.27;0.57;;;17.90;79.80;;;;;;5072332;28;20033;-77
2021/09/16 08:55:29;;;;;;;3.38;0.90;;;17.90;79.80;;;;;;5072537;28;20488;-76
2021/09/16 08:58:00;;;;;;;2.05;0.85;;;17.90;79.60;;;;;;5073534;28;20519;-76
2021/09/16 09:00:28;;;;;;;2.08;0.90;;;18.00;79.40;;;;;;5073471;28;20086;-77
2021/09/16 09:02:55;;;;;;;3.03;1.27;;;18.10;79.30;;;;;;5073332;28;20050;-76
2021/09/16 09:05:22;;;;;;;1.58;0.85;;;18.10;78.50;;;;;;5073232;28;20480;-77
2021/09/16 09:07:51;;;;;;;1.73;1.00;;;18.20;78.50;;;;;;5073332;28;20028;-77
2021/09/16 09:10:37;;;;;;;2.28;1.05;;;18.20;78.00;;;;;;5073295;28;20122;-77
2021/09/16 09:13:08;;;;;;;3.35;1.00;;;18.30;77.90;;;;;;5072358;28;20031;-76
2021/09/16 09:15:36;;;;;;;1.27;0.80;;;18.40;77.70;;;;;;5071945;28;20052;-77
2021/09/16 09:18:18;;;;;;;2.13;1.00;;;18.60;77.60;;;;;;5071951;28;20021;-76
2021/09/16 09:20:58;;;;;;;1.98;1.05;;;18.70;76.80;;;;;;5071736;28;20490;-76
2021/09/16 09:23:38;;;;;;;2.05;0.98;;;18.70;76.60;;;;;;5071838;28;20052;-77
2021/09/16 09:26:30;;;;;;;2.20;0.80;;;18.80;76.40;;;;;;5073038;28;20024;-76
2021/09/16 09:29:06;;;;;;;3.22;1.00;;;18.80;76.50;;;;;;5071615;28;20448;-77
2021/09/16 09:31:33;;;;;;;2.95;0.80;;;18.80;76.00;;;;;;5072962;28;20082;-77
2021/09/16 09:33:59;;;;;;;2.75;0.90;;;18.70;75.60;;;;;;5071752;28;20440;-77
2021/09/16 09:36:25;;;;;;;3.92;1.00;;;18.70;75.70;;;;;;5071765;28;20031;-77
2021/09/16 09:39:00;;;;;;;1.60;0.93;;;18.70;75.80;;;;;;5071635;28;20020;-76
2021/09/16 09:41:33;;;;;;;3.40;1.13;;;18.70;75.90;;;;;;5072900;28;20024;-76
2021/09/16 09:44:11;;;;;;;2.78;0.90;;;18.70;75.60;;;;;;5072861;28;20124;-76
2021/09/16 09:46:52;;;;;;;2.25;0.82;;;18.80;75.70;;;;;;5071616;28;20028;-76
2021/09/16 09:49:22;;;;;;;2.90;1.02;;;18.80;75.30;;;;;;5071475;28;20060;-76
2021/09/16 09:51:57;;;;;;;1.92;0.88;;;19.00;75.20;;;;;;5072826;28;20031;-76
2021/09/16 09:54:29;;;;;;;1.30;0.60;;;19.10;74.90;;;;;;5072810;28;20054;-77
2021/09/16 09:57:07;;;;;;;2.15;0.70;;;19.20;74.70;;;;;;5070655;28;20025;-77
2021/09/16 09:59:49;;;;;;;2.33;0.88;;;19.30;74.40;;;;;;5072831;28;20025;-77
2021/09/16 10:02:16;;;;;;;1.42;0.88;;;19.50;74.00;;;;;;5072667;28;20476;-77
2021/09/16 10:04:43;;;;;;;3.50;0.93;;;19.50;73.70;;;;;;5072842;28;20027;-77
2021/09/16 10:07:08;;;;;;;3.50;0.93;;;19.60;73.20;;;;;;5071328;28;20032;-76
2021/09/16 10:09:34;;;;;;;2.88;1.17;;;19.60;73.00;;;;;;5072886;28;20021;-77
2021/09/16 10:12:00;;;;;;;2.90;0.93;;;19.70;72.20;;;;;;5071309;28;20491;-77
2021/09/16 10:14:26;;;;;;;2.97;1.15;;;19.60;72.00;;;;;;5071140;28;20531;-77
2021/09/16 10:16:53;;;;;;;2.13;0.95;;;19.70;72.10;;;;;;5071099;28;20120;-77
2021/09/16 10:19:19;;;;;;;3.47;1.10;;;19.80;72.00;;;;;;5072600;28;20033;-78
2021/09/16 10:21:45;;;;;;;3.75;1.30;;;19.80;71.70;;;;;;5072332;28;20051;-78
2021/09/16 10:24:17;;;;;;;2.65;0.75;;;20.00;71.10;;;;;;5071194;28;20021;-77
2021/09/16 10:26:47;;;;;;;3.25;1.00;;;19.90;70.90;;;;;;5072492;28;20089;-77
2021/09/16 10:29:28;;;;;;;2.08;0.80;;;19.80;70.90;;;;;;5072478;28;20021;-78
2021/09/16 10:32:06;;;;;;;4.10;1.05;;;19.80;70.70;;;;;;5072331;28;20033;-77
2021/09/16 10:37:54;;;;;;;2.28;0.80;;;19.70;70.70;;;;;;5072270;28;20379;-77
2021/09/16 10:40:26;;;;;;;1.58;0.77;;;19.80;70.30;;;;;;5072528;28;20029;-77
2021/09/16 10:43:03;;;;;;;1.90;1.00;;;19.90;70.30;;;;;;5072373;28;20369;-78
2021/09/16 10:45:38;;;;;;;2.30;0.82;;;20.00;70.10;;;;;;5070988;28;20033;-77
2021/09/16 10:48:15;;;;;;;3.08;0.80;;;20.00;69.30;;;;;;5071082;28;20075;-76
2021/09/16 10:50:47;;;;;;;3.35;1.30;;;20.00;68.70;;;;;;5070700;28;20102;-77
2021/09/16 10:53:40;;;;;;;1.70;0.90;;;20.00;68.70;;;;;;5070900;28;20033;-77
2021/09/16 10:56:26;;;;;;;1.60;1.00;;;19.90;68.40;;;;;;5071001;28;20024;-76
2021/09/16 10:58:56;;;;;;;4.05;1.25;;;19.80;68.60;;;;;;5070732;28;20028;-76
2021/09/16 11:01:50;;;;;;;3.33;1.23;;;19.90;68.20;;;;;;5072309;28;20033;-77
2021/09/16 11:07:38;;;;;;;2.22;1.05;;;20.20;66.00;;;;;;5072124;28;20028;-77
2021/09/16 11:10:16;;;;;;;1.95;1.27;;;20.30;66.10;;;;;;5075606;28;20036;-77
2021/09/16 11:12:42;;;;;;;1.95;0.90;;;20.40;65.70;;;;;;5075714;28;20553;-77
2021/09/16 11:15:12;;;;;;;1.05;0.95;;;20.60;65.80;;;;;;5074393;28;20070;-76
2021/09/16 11:17:43;;;;;;;2.28;1.05;;;20.70;65.50;;;;;;5074278;28;20028;-77
2021/09/16 11:20:11;;;;;;;2.20;1.17;;;20.80;65.50;;;;;;5075730;28;20105;-77
2021/09/16 11:22:37;;;;;;;2.17;0.93;;;20.80;65.20;;;;;;5075241;28;20048;-77
2021/09/16 11:25:04;;;;;;;4.68;1.30;;;20.90;65.60;;;;;;5074330;28;20031;-77
2021/09/16 11:27:39;;;;;;;2.00;1.00;;;21.00;65.50;;;;;;5074252;28;20024;-76
2021/09/16 11:30:17;;;;;;;2.80;1.02;;;21.00;65.00;;;;;;5073963;28;20032;-76
2021/09/16 11:32:44;;;;;;;2.70;1.00;;;20.90;64.90;;;;;;5074398;28;20031;-76
2021/09/16 11:35:12;;;;;;;1.73;1.05;;;20.80;65.30;;;;;;5075121;28;20029;-77
2021/09/16 11:37:47;;;;;;;3.67;1.00;;;20.60;65.60;;;;;;5075080;28;20033;-77
2021/09/16 11:40:19;;;;;;;1.95;1.10;;;20.50;65.90;;;;;;5073899;28;20112;-77
2021/09/16 11:42:50;;;;;;;1.67;0.75;;;20.40;66.20;;;;;;5073981;28;20028;-76
2021/09/16 11:45:19;;;;;;;2.35;0.90;;;20.40;66.60;;;;;;5074806;28;20025;-76
2021/09/16 11:47:54;;;;;;;1.85;0.90;;;20.60;66.60;;;;;;5074947;28;20151;-76
2021/09/16 11:53:42;;;;;;;2.78;0.70;;;20.70;65.90;;;;;;5074945;28;20111;-76
2021/09/16 11:56:09;;;;;;;2.45;0.80;;;20.70;65.80;;;;;;5073518;28;20101;-76
2021/09/16 11:58:37;;;;;;;1.67;0.90;;;20.70;66.00;;;;;;5073783;28;20051;-76
2021/09/16 12:01:11;;;;;;;1.45;1.10;;;20.70;66.90;;;;;;5073564;28;20021;-76
2021/09/16 12:03:50;;;;;;;1.63;0.80;;;20.70;66.20;;;;;;5073351;28;20032;-76
2021/09/16 12:06:18;;;;;;;2.80;1.17;;;20.70;66.30;;;;;;5073403;28;20031;-76
2021/09/16 12:08:50;;;;;;;3.80;1.02;;;20.80;65.70;;;;;;5074781;28;20032;-76
2021/09/16 12:11:26;;;;;;;1.15;0.95;;;20.90;65.60;;;;;;5074483;28;20032;-77
2021/09/16 12:13:57;;;;;;;1.35;0.85;;;21.00;65.40;;;;;;5073651;28;20139;-76
2021/09/16 12:16:27;;;;;;;1.98;1.13;;;21.10;65.00;;;;;;5073191;28;20039;-76
2021/09/16 12:19:10;;;;;;;3.20;1.00;;;21.10;64.50;;;;;;5073066;28;20033;-77
2021/09/16 12:21:54;;;;;;;1.20;0.70;;;21.00;64.50;;;;;;5073414;28;20060;-77
2021/09/16 12:24:25;;;;;;;1.23;0.80;;;20.90;64.70;;;;;;5072951;28;20081;-77
2021/09/16 12:26:53;;;;;;;0.88;0.80;;;20.70;64.70;;;;;;5074117;28;20021;-76
2021/09/16 12:29:25;;;;;;;1.25;0.70;;;20.60;65.30;;;;;;5072850;28;20032;-76
2021/09/16 12:32:08;;;;;;;4.32;1.20;;;20.70;65.60;;;;;;5072869;28;20028;-76
2021/09/16 12:34:36;;;;;;;1.15;0.80;;;20.70;65.50;;;;;;5074220;28;20025;-77
2021/09/16 12:37:11;;;;;;;2.47;0.90;;;20.70;65.50;;;;;;5072746;28;20024;-77
2021/09/16 12:39:48;;;;;;;1.33;0.75;;;20.70;65.50;;;;;;5072723;28;20024;-77
2021/09/16 12:42:39;;;;;;;1.27;1.00;;;20.90;65.40;;;;;;5073993;28;20025;-76
2021/09/16 12:45:13;;;;;;;2.70;0.90;;;21.10;65.10;;;;;;5072542;28;20136;-77
2021/09/16 12:47:49;;;;;;;1.45;0.98;;;21.10;64.50;;;;;;5072590;28;20485;-77
2021/09/16 12:50:16;;;;;;;5.10;1.00;;;21.10;64.10;;;;;;5072708;28;20028;-77
2021/09/16 12:52:42;;;;;;;1.10;0.90;;;21.10;64.20;;;;;;5073764;28;20064;-77
2021/09/16 12:55:10;;;;;;;2.80;0.90;;;21.10;64.40;;;;;;5072392;28;20064;-77
2021/09/16 12:57:39;;;;;;;1.27;0.90;;;21.20;64.10;;;;;;5073544;28;20036;-76
2021/09/16 13:00:21;;;;;;;2.72;0.95;;;21.20;64.20;;;;;;5072731;28;20460;-76
2021/09/16 13:02:49;;;;;;;5.18;1.33;;;21.20;64.30;;;;;;5073283;28;20079;-75
2021/09/16 13:05:23;;;;;;;1.08;0.73;;;21.10;64.40;;;;;;5072139;28;20090;-76